AFR410 EKCH-LFPG
Flight info
| Callsign | AFR410 |
|---|---|
| Flight time | N/A |
| Altitude | 40000 |
| Route | NEXEN T503 GIMRU DCT MICOS DCT IDOSA UN857 TOLVU/N0464F390 DCT RAPOR DCT VEDUS |
| Aircraft | B77W/H-SDE1E2E3FGHIJ2J3J4J5M1RWXY/LB1D1 |
Departure
| Time | 2026-04-23 18:17 |
|---|---|
| Airport | Copenhagen Kastrup Airport (EKCH) |
Arrival
| Time | N/A |
|---|---|
| Airport | Charles de Gaulle International Airport (LFPG) |
| Time | Latitude | Longitude | Altitude | Speed | Heading |
|---|---|---|---|---|---|
| 2026-04-23 17:18 | 55.62422 | 12.64897 | 28 ft | 0 kts | 89° |
| 2026-04-23 17:18 | 55.62419 | 12.64908 | 29 ft | 0 kts | 89° |
| 2026-04-23 17:26 | 55.62422 | 12.64897 | 29 ft | 0 kts | 89° |
| 2026-04-23 17:27 | 55.62419 | 12.64908 | 29 ft | 0 kts | 89° |
| 2026-04-23 17:59 | 55.62419 | 12.64907 | 29 ft | 1 kts | 89° |
| 2026-04-23 18:00 | 55.62418 | 12.64865 | 27 ft | 4 kts | 89° |
| 2026-04-23 18:00 | 55.62418 | 12.64827 | 26 ft | 4 kts | 100° |
| 2026-04-23 18:00 | 55.62428 | 12.64789 | 26 ft | 4 kts | 149° |
| 2026-04-23 18:00 | 55.62450 | 12.64779 | 27 ft | 4 kts | 176° |
| 2026-04-23 18:01 | 55.62475 | 12.64775 | 26 ft | 2 kts | 179° |
| 2026-04-23 18:01 | 55.62497 | 12.64774 | 26 ft | 4 kts | 179° |
| 2026-04-23 18:01 | 55.62525 | 12.64773 | 27 ft | 4 kts | 179° |
| 2026-04-23 18:01 | 55.62552 | 12.64772 | 27 ft | 4 kts | 179° |
| 2026-04-23 18:02 | 55.62570 | 12.64771 | 28 ft | 4 kts | 179° |
| 2026-04-23 18:02 | 55.62601 | 12.64770 | 29 ft | 0 kts | 179° |
| 2026-04-23 18:06 | 55.62599 | 12.64770 | 29 ft | 1 kts | 179° |
| 2026-04-23 18:07 | 55.62578 | 12.64771 | 27 ft | 4 kts | 179° |
| 2026-04-23 18:07 | 55.62545 | 12.64772 | 28 ft | 6 kts | 179° |
| 2026-04-23 18:07 | 55.62501 | 12.64774 | 26 ft | 7 kts | 179° |
| 2026-04-23 18:07 | 55.62446 | 12.64776 | 27 ft | 9 kts | 178° |
| 2026-04-23 18:08 | 55.62405 | 12.64780 | 27 ft | 9 kts | 177° |
| 2026-04-23 18:08 | 55.62337 | 12.64785 | 29 ft | 10 kts | 177° |
| 2026-04-23 18:08 | 55.62263 | 12.64790 | 29 ft | 11 kts | 177° |
| 2026-04-23 18:08 | 55.62190 | 12.64746 | 29 ft | 11 kts | 213° |
| 2026-04-23 18:09 | 55.62122 | 12.64669 | 29 ft | 12 kts | 214° |
| 2026-04-23 18:09 | 55.62046 | 12.64580 | 28 ft | 14 kts | 213° |
| 2026-04-23 18:09 | 55.61962 | 12.64505 | 29 ft | 14 kts | 191° |
| 2026-04-23 18:09 | 55.61868 | 12.64521 | 29 ft | 14 kts | 168° |
| 2026-04-23 18:10 | 55.61773 | 12.64548 | 29 ft | 14 kts | 168° |
| 2026-04-23 18:10 | 55.61729 | 12.64562 | 29 ft | 0 kts | 171° |
| 2026-04-23 18:10 | 55.61724 | 12.64564 | 29 ft | 1 kts | 170° |
| 2026-04-23 18:10 | 55.61722 | 12.64565 | 29 ft | 0 kts | 170° |
| 2026-04-23 18:11 | 55.61720 | 12.64565 | 29 ft | 1 kts | 169° |
| 2026-04-23 18:11 | 55.61702 | 12.64569 | 29 ft | 5 kts | 173° |
| 2026-04-23 18:11 | 55.61651 | 12.64537 | 29 ft | 11 kts | 212° |
| 2026-04-23 18:12 | 55.61571 | 12.64449 | 29 ft | 15 kts | 212° |
| 2026-04-23 18:12 | 55.61482 | 12.64349 | 29 ft | 15 kts | 213° |
| 2026-04-23 18:12 | 55.61392 | 12.64243 | 29 ft | 16 kts | 214° |
| 2026-04-23 18:12 | 55.61298 | 12.64130 | 29 ft | 16 kts | 213° |
| 2026-04-23 18:13 | 55.61202 | 12.64020 | 28 ft | 16 kts | 213° |
| 2026-04-23 18:13 | 55.61106 | 12.63911 | 29 ft | 16 kts | 212° |
| 2026-04-23 18:13 | 55.61010 | 12.63801 | 29 ft | 16 kts | 212° |
| 2026-04-23 18:13 | 55.60916 | 12.63692 | 29 ft | 16 kts | 213° |
| 2026-04-23 18:14 | 55.60820 | 12.63582 | 29 ft | 16 kts | 213° |
| 2026-04-23 18:14 | 55.60725 | 12.63471 | 28 ft | 16 kts | 213° |
| 2026-04-23 18:14 | 55.60633 | 12.63354 | 28 ft | 16 kts | 217° |
| 2026-04-23 18:14 | 55.60546 | 12.63222 | 28 ft | 16 kts | 223° |
| 2026-04-23 18:15 | 55.60460 | 12.63123 | 29 ft | 9 kts | 189° |
| 2026-04-23 18:15 | 55.60413 | 12.63148 | 29 ft | 7 kts | 148° |
| 2026-04-23 18:15 | 55.60376 | 12.63208 | 29 ft | 7 kts | 130° |
| 2026-04-23 18:15 | 55.60343 | 12.63278 | 31 ft | 7 kts | 131° |
| 2026-04-23 18:16 | 55.60352 | 12.63358 | 31 ft | 8 kts | 48° |
| 2026-04-23 18:16 | 55.60366 | 12.63381 | 31 ft | 0 kts | 43° |
| 2026-04-23 18:16 | 55.60611 | 12.63764 | 29 ft | 107 kts | 41° |
| 2026-04-23 18:17 | 55.62537 | 12.66761 | 1211 ft | 227 kts | 39° |
| 2026-04-23 18:17 | 55.63726 | 12.68597 | 3394 ft | 224 kts | 35° |
| 2026-04-23 18:17 | 55.64951 | 12.70457 | 5367 ft | 240 kts | 36° |
| 2026-04-23 18:17 | 55.66220 | 12.72468 | 7024 ft | 243 kts | 38° |
| 2026-04-23 18:18 | 55.67436 | 12.74554 | 7817 ft | 249 kts | 35° |
| 2026-04-23 18:18 | 55.68832 | 12.76564 | 8245 ft | 265 kts | 34° |
| 2026-04-23 18:18 | 55.70029 | 12.79142 | 9144 ft | 284 kts | 61° |
| 2026-04-23 18:18 | 55.70344 | 12.82648 | 10200 ft | 304 kts | 91° |
| 2026-04-23 18:19 | 55.69603 | 12.86227 | 11160 ft | 321 kts | 122° |
| 2026-04-23 18:19 | 55.67903 | 12.88862 | 12093 ft | 332 kts | 153° |
| 2026-04-23 18:19 | 55.65665 | 12.89872 | 13031 ft | 335 kts | 183° |
| 2026-04-23 18:19 | 55.63428 | 12.88966 | 13980 ft | 330 kts | 213° |
| 2026-04-23 18:20 | 55.61568 | 12.86640 | 14830 ft | 328 kts | 227° |
| 2026-04-23 18:20 | 55.59890 | 12.83860 | 15757 ft | 331 kts | 230° |
| 2026-04-23 18:20 | 55.58236 | 12.80997 | 16727 ft | 335 kts | 229° |
| 2026-04-23 18:20 | 55.56537 | 12.78128 | 17702 ft | 339 kts | 228° |
| 2026-04-23 18:21 | 55.54807 | 12.75314 | 18596 ft | 345 kts | 227° |
| 2026-04-23 18:21 | 55.53040 | 12.72537 | 19052 ft | 349 kts | 226° |
| 2026-04-23 18:21 | 55.51192 | 12.69709 | 19120 ft | 353 kts | 225° |
| 2026-04-23 18:21 | 55.49324 | 12.66913 | 19125 ft | 353 kts | 225° |
| 2026-04-23 18:22 | 55.47433 | 12.64122 | 19116 ft | 351 kts | 224° |
| 2026-04-23 18:22 | 55.45598 | 12.61436 | 19112 ft | 350 kts | 224° |
| 2026-04-23 18:22 | 55.43681 | 12.58644 | 19119 ft | 349 kts | 224° |
| 2026-04-23 18:22 | 55.41806 | 12.55921 | 19121 ft | 348 kts | 224° |
| 2026-04-23 18:23 | 55.40570 | 12.54128 | 19128 ft | 349 kts | 224° |
| 2026-04-23 18:23 | 55.36175 | 12.47766 | 20760 ft | 358 kts | 224° |
| 2026-04-23 18:24 | 55.32284 | 12.42149 | 22519 ft | 366 kts | 224° |
| 2026-04-23 18:24 | 55.30301 | 12.39293 | 23392 ft | 371 kts | 224° |
| 2026-04-23 18:24 | 55.28291 | 12.36403 | 24158 ft | 375 kts | 224° |
| 2026-04-23 18:25 | 55.24199 | 12.30532 | 25630 ft | 383 kts | 224° |
| 2026-04-23 18:25 | 55.22121 | 12.27559 | 26377 ft | 387 kts | 224° |
| 2026-04-23 18:25 | 55.20026 | 12.24563 | 27106 ft | 391 kts | 224° |
| 2026-04-23 18:25 | 55.17931 | 12.21573 | 27810 ft | 395 kts | 224° |
| 2026-04-23 18:26 | 55.15815 | 12.18556 | 28503 ft | 399 kts | 224° |
| 2026-04-23 18:26 | 55.13679 | 12.15514 | 29199 ft | 404 kts | 224° |
| 2026-04-23 18:26 | 55.11491 | 12.12405 | 29962 ft | 405 kts | 223° |
| 2026-04-23 18:26 | 55.09300 | 12.09297 | 30618 ft | 408 kts | 223° |
| 2026-04-23 18:27 | 55.07077 | 12.06148 | 31164 ft | 413 kts | 223° |
| 2026-04-23 18:27 | 55.04838 | 12.02978 | 31670 ft | 417 kts | 223° |
| 2026-04-23 18:27 | 55.02573 | 11.99777 | 32198 ft | 421 kts | 223° |
| 2026-04-23 18:27 | 55.00286 | 11.96551 | 32727 ft | 425 kts | 223° |
| 2026-04-23 18:28 | 54.97999 | 11.93329 | 33234 ft | 428 kts | 223° |
| 2026-04-23 18:28 | 54.95665 | 11.90047 | 33719 ft | 432 kts | 223° |
| 2026-04-23 18:28 | 54.93315 | 11.86746 | 34148 ft | 436 kts | 223° |
| 2026-04-23 18:29 | 54.88561 | 11.80086 | 34152 ft | 438 kts | 223° |
| 2026-04-23 18:29 | 54.83840 | 11.73500 | 34140 ft | 434 kts | 223° |
| 2026-04-23 18:30 | 54.79200 | 11.67041 | 34149 ft | 432 kts | 223° |
| 2026-04-23 18:30 | 54.74500 | 11.60514 | 34153 ft | 432 kts | 223° |
| 2026-04-23 18:31 | 54.69797 | 11.54001 | 34154 ft | 433 kts | 222° |
| 2026-04-23 18:31 | 54.65082 | 11.47497 | 34922 ft | 427 kts | 222° |
| 2026-04-23 18:31 | 54.62805 | 11.44369 | 35788 ft | 417 kts | 222° |
| 2026-04-23 18:32 | 54.60526 | 11.41238 | 36335 ft | 416 kts | 222° |
| 2026-04-23 18:32 | 54.58253 | 11.38114 | 36613 ft | 421 kts | 222° |
| 2026-04-23 18:32 | 54.55968 | 11.34976 | 36865 ft | 426 kts | 222° |
| 2026-04-23 18:32 | 54.53647 | 11.31796 | 37258 ft | 425 kts | 221° |
| 2026-04-23 18:33 | 54.51334 | 11.28636 | 37731 ft | 424 kts | 221° |
| 2026-04-23 18:33 | 54.49020 | 11.25478 | 38098 ft | 426 kts | 221° |
| 2026-04-23 18:33 | 54.46698 | 11.22313 | 38389 ft | 428 kts | 221° |
| 2026-04-23 18:33 | 54.44353 | 11.19123 | 38667 ft | 430 kts | 221° |
| 2026-04-23 18:34 | 54.41997 | 11.15922 | 38954 ft | 432 kts | 221° |
| 2026-04-23 18:34 | 54.39630 | 11.12711 | 39188 ft | 434 kts | 221° |
| 2026-04-23 18:34 | 54.37251 | 11.09487 | 39371 ft | 437 kts | 221° |
| 2026-04-23 18:34 | 54.34851 | 11.06238 | 39583 ft | 440 kts | 220° |
| 2026-04-23 18:35 | 54.32448 | 11.02993 | 39771 ft | 442 kts | 220° |
| 2026-04-23 18:35 | 54.30017 | 10.99723 | 39970 ft | 444 kts | 220° |
| 2026-04-23 18:35 | 54.27554 | 10.96507 | 40105 ft | 448 kts | 219° |
| 2026-04-23 18:36 | 54.22481 | 10.90067 | 40208 ft | 456 kts | 218° |
| 2026-04-23 18:36 | 54.17318 | 10.83559 | 40216 ft | 466 kts | 218° |
| 2026-04-23 18:37 | 54.12120 | 10.76998 | 40217 ft | 469 kts | 218° |
| 2026-04-23 18:37 | 54.08539 | 10.72478 | 40217 ft | 470 kts | 218° |
| 2026-04-23 18:38 | 54.04556 | 10.67459 | 40214 ft | 471 kts | 218° |
| 2026-04-23 18:38 | 53.99447 | 10.61034 | 40219 ft | 470 kts | 218° |
| 2026-04-23 18:39 | 53.94358 | 10.54654 | 40219 ft | 468 kts | 218° |
| 2026-04-23 18:39 | 53.89619 | 10.48731 | 40215 ft | 466 kts | 218° |
| 2026-04-23 18:40 | 53.84601 | 10.42477 | 40219 ft | 463 kts | 218° |
| 2026-04-23 18:40 | 53.81026 | 10.38034 | 40218 ft | 462 kts | 218° |
| 2026-04-23 18:41 | 53.77259 | 10.33360 | 40222 ft | 461 kts | 217° |
| 2026-04-23 18:41 | 53.73150 | 10.28280 | 40231 ft | 461 kts | 217° |
| 2026-04-23 18:42 | 53.69806 | 10.24154 | 40246 ft | 460 kts | 218° |
| 2026-04-23 18:42 | 53.65810 | 10.19234 | 40238 ft | 462 kts | 218° |
| 2026-04-23 18:43 | 53.61037 | 10.13373 | 40248 ft | 463 kts | 217° |
| 2026-04-23 18:43 | 53.56376 | 10.07661 | 40234 ft | 464 kts | 217° |
| 2026-04-23 18:44 | 53.51280 | 10.01437 | 40265 ft | 465 kts | 218° |
| 2026-04-23 18:44 | 53.46034 | 9.95050 | 40266 ft | 466 kts | 217° |
| 2026-04-23 18:45 | 53.41002 | 9.88943 | 40271 ft | 467 kts | 217° |
| 2026-04-23 18:45 | 53.35885 | 9.82752 | 40273 ft | 467 kts | 218° |
| 2026-04-23 18:46 | 53.30647 | 9.76434 | 40272 ft | 466 kts | 217° |
| 2026-04-23 18:46 | 53.25396 | 9.70116 | 40269 ft | 466 kts | 217° |
| 2026-04-23 18:47 | 53.20126 | 9.63799 | 40285 ft | 465 kts | 217° |
| 2026-04-23 18:47 | 53.14872 | 9.57518 | 40285 ft | 465 kts | 217° |
| 2026-04-23 18:48 | 53.09629 | 9.51268 | 40274 ft | 466 kts | 217° |
| 2026-04-23 18:48 | 53.04340 | 9.44984 | 40275 ft | 466 kts | 217° |
| 2026-04-23 18:49 | 52.99058 | 9.38730 | 40282 ft | 467 kts | 216° |
| 2026-04-23 18:49 | 52.93766 | 9.32482 | 40288 ft | 467 kts | 217° |
| 2026-04-23 18:50 | 52.89361 | 9.27296 | 40296 ft | 467 kts | 217° |
| 2026-04-23 18:50 | 52.83183 | 9.20045 | 40293 ft | 467 kts | 216° |
| 2026-04-23 18:51 | 52.77893 | 9.13858 | 40288 ft | 467 kts | 217° |
| 2026-04-23 18:51 | 52.72573 | 9.07651 | 40283 ft | 467 kts | 216° |
| 2026-04-23 18:52 | 52.67266 | 9.01479 | 40299 ft | 466 kts | 216° |
| 2026-04-23 18:52 | 52.61971 | 8.95339 | 40299 ft | 465 kts | 215° |
| 2026-04-23 18:53 | 52.56713 | 8.89263 | 40298 ft | 464 kts | 215° |
| 2026-04-23 18:53 | 52.51434 | 8.83179 | 40308 ft | 463 kts | 215° |
| 2026-04-23 18:54 | 52.46163 | 8.77124 | 40306 ft | 464 kts | 215° |
| 2026-04-23 18:54 | 52.41887 | 8.72224 | 40309 ft | 464 kts | 214° |
| 2026-04-23 18:55 | 52.36567 | 8.66145 | 40315 ft | 465 kts | 214° |
| 2026-04-23 18:55 | 52.31251 | 8.60089 | 40305 ft | 467 kts | 214° |
| 2026-04-23 18:56 | 52.25938 | 8.54053 | 40307 ft | 467 kts | 214° |
| 2026-04-23 18:56 | 52.20592 | 8.47998 | 40320 ft | 467 kts | 214° |
| 2026-04-23 18:57 | 52.15242 | 8.41957 | 40319 ft | 468 kts | 214° |
| 2026-04-23 18:57 | 52.09905 | 8.35949 | 40314 ft | 467 kts | 214° |
| 2026-04-23 18:58 | 52.04580 | 8.29972 | 40313 ft | 466 kts | 214° |
| 2026-04-23 18:58 | 51.99271 | 8.24029 | 40315 ft | 464 kts | 214° |
| 2026-04-23 18:59 | 51.93943 | 8.18082 | 40319 ft | 462 kts | 213° |
| 2026-04-23 18:59 | 51.88642 | 8.12186 | 40319 ft | 461 kts | 214° |
| 2026-04-23 19:00 | 51.83342 | 8.06305 | 40322 ft | 461 kts | 213° |
| 2026-04-23 19:00 | 51.78042 | 8.00444 | 40319 ft | 462 kts | 213° |
| 2026-04-23 19:01 | 51.72721 | 7.94574 | 40333 ft | 463 kts | 213° |
| 2026-04-23 19:01 | 51.67399 | 7.88721 | 40325 ft | 464 kts | 213° |
| 2026-04-23 19:02 | 51.62085 | 7.82894 | 40320 ft | 464 kts | 213° |
| 2026-04-23 19:02 | 51.57015 | 7.77349 | 40321 ft | 464 kts | 213° |
| 2026-04-23 19:03 | 51.53735 | 7.73771 | 40324 ft | 464 kts | 213° |
| 2026-04-23 19:03 | 51.48565 | 7.68144 | 40322 ft | 464 kts | 213° |
| 2026-04-23 19:04 | 51.44301 | 7.63514 | 40319 ft | 463 kts | 213° |
| 2026-04-23 19:04 | 51.38967 | 7.57736 | 40322 ft | 463 kts | 213° |
| 2026-04-23 19:05 | 51.33635 | 7.51977 | 40324 ft | 462 kts | 213° |
| 2026-04-23 19:05 | 51.28187 | 7.45779 | 40330 ft | 462 kts | 218° |
| 2026-04-23 19:06 | 51.23884 | 7.40018 | 40328 ft | 462 kts | 219° |
| 2026-04-23 19:06 | 51.18947 | 7.33287 | 40328 ft | 462 kts | 219° |
| 2026-04-23 19:07 | 51.14045 | 7.26767 | 40323 ft | 462 kts | 218° |
| 2026-04-23 19:07 | 51.09084 | 7.20284 | 40329 ft | 462 kts | 218° |
| 2026-04-23 19:08 | 51.04090 | 7.13804 | 40323 ft | 463 kts | 218° |
| 2026-04-23 19:08 | 50.99433 | 7.07777 | 40330 ft | 463 kts | 217° |
| 2026-04-23 19:09 | 50.95719 | 7.02977 | 40328 ft | 463 kts | 217° |
| 2026-04-23 19:09 | 50.91244 | 6.97207 | 40326 ft | 463 kts | 217° |
| 2026-04-23 19:10 | 50.87038 | 6.91798 | 40321 ft | 463 kts | 217° |
| 2026-04-23 19:10 | 50.82036 | 6.85378 | 40347 ft | 463 kts | 217° |
| 2026-04-23 19:11 | 50.77260 | 6.79267 | 40346 ft | 462 kts | 217° |
| 2026-04-23 19:11 | 50.73278 | 6.74184 | 40348 ft | 462 kts | 217° |
| 2026-04-23 19:12 | 50.70330 | 6.70429 | 40349 ft | 461 kts | 217° |
| 2026-04-23 19:12 | 50.66355 | 6.65376 | 40346 ft | 461 kts | 217° |
| 2026-04-23 19:13 | 50.62694 | 6.60733 | 40345 ft | 461 kts | 217° |
| 2026-04-23 19:13 | 50.60721 | 6.58234 | 40339 ft | 461 kts | 217° |
| 2026-04-23 19:14 | 50.57678 | 6.54389 | 40328 ft | 461 kts | 217° |
| 2026-04-23 19:14 | 50.52648 | 6.48040 | 40338 ft | 460 kts | 217° |
| 2026-04-23 19:15 | 50.48954 | 6.43386 | 40340 ft | 459 kts | 217° |
| 2026-04-23 19:15 | 50.46653 | 6.40495 | 40338 ft | 459 kts | 217° |
| 2026-04-23 19:16 | 50.45098 | 6.38542 | 40333 ft | 459 kts | 217° |
| 2026-04-23 19:16 | 50.42125 | 6.34967 | 40402 ft | 456 kts | 216° |
| 2026-04-23 19:17 | 50.35213 | 6.26251 | 40340 ft | 458 kts | 217° |
| 2026-04-23 19:17 | 50.32757 | 6.23145 | 40177 ft | 461 kts | 217° |
| 2026-04-23 19:17 | 50.30255 | 6.20002 | 39925 ft | 460 kts | 217° |
| 2026-04-23 19:18 | 50.27762 | 6.16888 | 39687 ft | 456 kts | 216° |
| 2026-04-23 19:18 | 50.25298 | 6.13822 | 39361 ft | 450 kts | 216° |
| 2026-04-23 19:18 | 50.22869 | 6.10808 | 39014 ft | 445 kts | 216° |
| 2026-04-23 19:18 | 50.20484 | 6.07855 | 38580 ft | 440 kts | 216° |
| 2026-04-23 19:19 | 50.15700 | 6.01943 | 37737 ft | 431 kts | 215° |
| 2026-04-23 19:19 | 50.13357 | 5.99051 | 37320 ft | 427 kts | 215° |
| 2026-04-23 19:20 | 50.08761 | 5.93393 | 36539 ft | 419 kts | 214° |
| 2026-04-23 19:20 | 50.06579 | 5.90710 | 36171 ft | 415 kts | 214° |
| 2026-04-23 19:20 | 50.04313 | 5.87928 | 35797 ft | 411 kts | 214° |
| 2026-04-23 19:20 | 50.02101 | 5.85215 | 35423 ft | 407 kts | 214° |
| 2026-04-23 19:21 | 49.99887 | 5.82504 | 35061 ft | 403 kts | 213° |
| 2026-04-23 19:21 | 49.95503 | 5.77143 | 34326 ft | 397 kts | 213° |
| 2026-04-23 19:21 | 49.93348 | 5.74514 | 33927 ft | 393 kts | 213° |
| 2026-04-23 19:22 | 49.91195 | 5.71890 | 33521 ft | 390 kts | 213° |
| 2026-04-23 19:22 | 49.89064 | 5.69296 | 33102 ft | 387 kts | 213° |
| 2026-04-23 19:22 | 49.84884 | 5.64218 | 32329 ft | 382 kts | 213° |
| 2026-04-23 19:23 | 49.82784 | 5.61669 | 31929 ft | 380 kts | 213° |
| 2026-04-23 19:23 | 49.80706 | 5.59151 | 31557 ft | 378 kts | 213° |
| 2026-04-23 19:23 | 49.78638 | 5.56647 | 31191 ft | 377 kts | 213° |
| 2026-04-23 19:24 | 49.74538 | 5.51692 | 30467 ft | 373 kts | 213° |
| 2026-04-23 19:24 | 49.72485 | 5.49215 | 30055 ft | 372 kts | 213° |
| 2026-04-23 19:24 | 49.68412 | 5.44306 | 29214 ft | 370 kts | 213° |
| 2026-04-23 19:25 | 49.64388 | 5.39468 | 28424 ft | 368 kts | 214° |
| 2026-04-23 19:25 | 49.61429 | 5.33071 | 27603 ft | 377 kts | 250° |
| 2026-04-23 19:26 | 49.59972 | 5.25380 | 27368 ft | 371 kts | 249° |
| 2026-04-23 19:26 | 49.59203 | 5.21553 | 27356 ft | 376 kts | 254° |
| 2026-04-23 19:27 | 49.58952 | 5.13482 | 27394 ft | 384 kts | 271° |
| 2026-04-23 19:27 | 49.59286 | 5.01209 | 28529 ft | 391 kts | 269° |
| 2026-04-23 19:28 | 49.59383 | 4.92728 | 29157 ft | 403 kts | 267° |
| 2026-04-23 19:28 | 49.59454 | 4.84058 | 28520 ft | 402 kts | 268° |
| 2026-04-23 19:29 | 49.59488 | 4.79779 | 28071 ft | 400 kts | 268° |
| 2026-04-23 19:29 | 49.59539 | 4.71195 | 27058 ft | 400 kts | 268° |
| 2026-04-23 19:30 | 49.59573 | 4.62627 | 26073 ft | 400 kts | 268° |
| 2026-04-23 19:30 | 49.59588 | 4.58387 | 25599 ft | 399 kts | 268° |
| 2026-04-23 19:30 | 49.59616 | 4.49851 | 24666 ft | 399 kts | 269° |
| 2026-04-23 19:31 | 49.59628 | 4.45559 | 24210 ft | 399 kts | 269° |
| 2026-04-23 19:31 | 49.59639 | 4.41281 | 23731 ft | 398 kts | 269° |
| 2026-04-23 19:31 | 49.59648 | 4.37006 | 23190 ft | 398 kts | 269° |
| 2026-04-23 19:31 | 49.59655 | 4.32755 | 22663 ft | 397 kts | 269° |
| 2026-04-23 19:32 | 49.59660 | 4.28499 | 22140 ft | 396 kts | 269° |
| 2026-04-23 19:32 | 49.59665 | 4.24256 | 21626 ft | 395 kts | 269° |
| 2026-04-23 19:32 | 49.59668 | 4.20011 | 21124 ft | 394 kts | 269° |
| 2026-04-23 19:32 | 49.59670 | 4.15799 | 20627 ft | 393 kts | 269° |
| 2026-04-23 19:33 | 49.59669 | 4.11590 | 20129 ft | 392 kts | 269° |
| 2026-04-23 19:33 | 49.59499 | 4.07440 | 19619 ft | 385 kts | 257° |
| 2026-04-23 19:33 | 49.57052 | 4.00306 | 18699 ft | 376 kts | 235° |
| 2026-04-23 19:34 | 49.55609 | 3.96987 | 18188 ft | 375 kts | 235° |
| 2026-04-23 19:34 | 49.54158 | 3.93599 | 17652 ft | 375 kts | 236° |
| 2026-04-23 19:34 | 49.51321 | 3.86905 | 16618 ft | 373 kts | 236° |
| 2026-04-23 19:35 | 49.49910 | 3.83563 | 16135 ft | 372 kts | 236° |
| 2026-04-23 19:35 | 49.48505 | 3.80243 | 15647 ft | 371 kts | 236° |
| 2026-04-23 19:35 | 49.47231 | 3.76878 | 15134 ft | 368 kts | 247° |
| 2026-04-23 19:35 | 49.46546 | 3.73076 | 14662 ft | 367 kts | 258° |
| 2026-04-23 19:36 | 49.46011 | 3.69236 | 14199 ft | 366 kts | 257° |
| 2026-04-23 19:36 | 49.45402 | 3.65450 | 13692 ft | 365 kts | 255° |
| 2026-04-23 19:36 | 49.44764 | 3.61675 | 13174 ft | 364 kts | 255° |
| 2026-04-23 19:36 | 49.44121 | 3.57920 | 12668 ft | 363 kts | 255° |
| 2026-04-23 19:37 | 49.43506 | 3.54315 | 12194 ft | 362 kts | 255° |
| 2026-04-23 19:37 | 49.42868 | 3.50571 | 11687 ft | 361 kts | 255° |
| 2026-04-23 19:37 | 49.42236 | 3.46867 | 11380 ft | 354 kts | 254° |
| 2026-04-23 19:37 | 49.41570 | 3.43303 | 11296 ft | 340 kts | 250° |
| 2026-04-23 19:38 | 49.40739 | 3.39988 | 11223 ft | 327 kts | 246° |
| 2026-04-23 19:38 | 49.39854 | 3.36794 | 10880 ft | 324 kts | 245° |
| 2026-04-23 19:38 | 49.38965 | 3.33635 | 10558 ft | 321 kts | 246° |
| 2026-04-23 19:38 | 49.38377 | 3.31536 | 10521 ft | 312 kts | 245° |
| 2026-04-23 19:39 | 49.37307 | 3.27663 | 10763 ft | 283 kts | 246° |
| 2026-04-23 19:39 | 49.36574 | 3.24981 | 10934 ft | 261 kts | 246° |
| 2026-04-23 19:39 | 49.35903 | 3.22516 | 11113 ft | 243 kts | 246° |
| 2026-04-23 19:39 | 49.35255 | 3.20134 | 11326 ft | 241 kts | 246° |
| 2026-04-23 19:40 | 49.34605 | 3.17740 | 11577 ft | 245 kts | 246° |
| 2026-04-23 19:40 | 49.33956 | 3.15348 | 11856 ft | 246 kts | 246° |
| 2026-04-23 19:40 | 49.33294 | 3.12909 | 12096 ft | 251 kts | 246° |
| 2026-04-23 19:40 | 49.32833 | 3.11209 | 12059 ft | 259 kts | 246° |
| 2026-04-23 19:41 | 49.31934 | 3.07888 | 11900 ft | 250 kts | 246° |
| 2026-04-23 19:41 | 49.31273 | 3.05450 | 11732 ft | 245 kts | 246° |
| 2026-04-23 19:41 | 49.30832 | 3.03824 | 11623 ft | 244 kts | 246° |
| 2026-04-23 19:41 | 49.29967 | 3.00639 | 11374 ft | 247 kts | 245° |
| 2026-04-23 19:42 | 49.29528 | 2.99026 | 11220 ft | 249 kts | 245° |
| 2026-04-23 19:42 | 49.28863 | 2.96581 | 11077 ft | 245 kts | 245° |
| 2026-04-23 19:42 | 49.28212 | 2.94187 | 11014 ft | 241 kts | 245° |
| 2026-04-23 19:42 | 49.27572 | 2.91837 | 11033 ft | 239 kts | 245° |
| 2026-04-23 19:43 | 49.26929 | 2.89483 | 11102 ft | 242 kts | 245° |
| 2026-04-23 19:43 | 49.26276 | 2.87093 | 11180 ft | 244 kts | 245° |
| 2026-04-23 19:43 | 49.25622 | 2.84699 | 11224 ft | 245 kts | 245° |
| 2026-04-23 19:43 | 49.24966 | 2.82302 | 11276 ft | 244 kts | 245° |
| 2026-04-23 19:44 | 49.24305 | 2.79885 | 11280 ft | 245 kts | 245° |
| 2026-04-23 19:44 | 49.23646 | 2.77482 | 11289 ft | 245 kts | 245° |
| 2026-04-23 19:44 | 49.22985 | 2.75073 | 11290 ft | 245 kts | 245° |
| 2026-04-23 19:44 | 49.22325 | 2.72669 | 11286 ft | 246 kts | 245° |
| 2026-04-23 19:45 | 49.21663 | 2.70259 | 11290 ft | 246 kts | 245° |
| 2026-04-23 19:45 | 49.21010 | 2.67881 | 11292 ft | 246 kts | 245° |
| 2026-04-23 19:45 | 49.20348 | 2.65476 | 11288 ft | 245 kts | 245° |
| 2026-04-23 19:45 | 49.19684 | 2.63070 | 11293 ft | 245 kts | 245° |
| 2026-04-23 19:46 | 49.19021 | 2.60673 | 11290 ft | 245 kts | 245° |
| 2026-04-23 19:46 | 49.18360 | 2.58277 | 11290 ft | 244 kts | 246° |
| 2026-04-23 19:46 | 49.17976 | 2.55783 | 11295 ft | 242 kts | 264° |
| 2026-04-23 19:46 | 49.17919 | 2.53209 | 11298 ft | 243 kts | 268° |
| 2026-04-23 19:47 | 49.17904 | 2.50611 | 11294 ft | 245 kts | 268° |
| 2026-04-23 19:47 | 49.17878 | 2.47997 | 11287 ft | 248 kts | 267° |
| 2026-04-23 19:47 | 49.17837 | 2.45325 | 11058 ft | 253 kts | 267° |
| 2026-04-23 19:47 | 49.17785 | 2.42681 | 10768 ft | 251 kts | 266° |
| 2026-04-23 19:48 | 49.17728 | 2.40009 | 10430 ft | 252 kts | 266° |
| 2026-04-23 19:48 | 49.17669 | 2.37355 | 10144 ft | 249 kts | 266° |
| 2026-04-23 19:48 | 49.17548 | 2.34728 | 9821 ft | 246 kts | 263° |
| 2026-04-23 19:48 | 49.17372 | 2.32133 | 9490 ft | 244 kts | 262° |
| 2026-04-23 19:49 | 49.17195 | 2.29559 | 9175 ft | 242 kts | 262° |
| 2026-04-23 19:49 | 49.17023 | 2.27011 | 8868 ft | 241 kts | 263° |
| 2026-04-23 19:49 | 49.16855 | 2.24473 | 8560 ft | 239 kts | 263° |
| 2026-04-23 19:49 | 49.16689 | 2.21954 | 8258 ft | 237 kts | 263° |
| 2026-04-23 19:50 | 49.16524 | 2.19455 | 7952 ft | 236 kts | 263° |
| 2026-04-23 19:50 | 49.16361 | 2.16974 | 7655 ft | 234 kts | 263° |
| 2026-04-23 19:50 | 49.15946 | 2.14640 | 7312 ft | 226 kts | 235° |
| 2026-04-23 19:50 | 49.14811 | 2.13094 | 7013 ft | 217 kts | 200° |
| 2026-04-23 19:51 | 49.13355 | 2.12607 | 6753 ft | 214 kts | 177° |
| 2026-04-23 19:51 | 49.11898 | 2.12943 | 6460 ft | 210 kts | 163° |
| 2026-04-23 19:51 | 49.10495 | 2.13517 | 6163 ft | 208 kts | 162° |
| 2026-04-23 19:51 | 49.09119 | 2.14094 | 5863 ft | 207 kts | 162° |
| 2026-04-23 19:52 | 49.07732 | 2.14664 | 5573 ft | 206 kts | 162° |
| 2026-04-23 19:52 | 49.06351 | 2.15221 | 5274 ft | 205 kts | 162° |
| 2026-04-23 19:52 | 49.04975 | 2.15769 | 4962 ft | 204 kts | 161° |
| 2026-04-23 19:52 | 49.03608 | 2.16311 | 4655 ft | 203 kts | 161° |
| 2026-04-23 19:53 | 49.02269 | 2.16885 | 4377 ft | 193 kts | 152° |
| 2026-04-23 19:53 | 49.01349 | 2.18178 | 4054 ft | 174 kts | 109° |
| 2026-04-23 19:53 | 49.01189 | 2.19838 | 4007 ft | 149 kts | 92° |
| 2026-04-23 19:53 | 49.01140 | 2.21368 | 3982 ft | 142 kts | 91° |
| 2026-04-23 19:54 | 49.01085 | 2.22881 | 3997 ft | 143 kts | 91° |
| 2026-04-23 19:54 | 49.01069 | 2.24379 | 3966 ft | 139 kts | 89° |
| 2026-04-23 19:54 | 49.01101 | 2.25821 | 3795 ft | 133 kts | 86° |
| 2026-04-23 19:54 | 49.01154 | 2.27192 | 3598 ft | 128 kts | 86° |
| 2026-04-23 19:55 | 49.01215 | 2.28543 | 3471 ft | 131 kts | 85° |
| 2026-04-23 19:55 | 49.01285 | 2.29935 | 3293 ft | 129 kts | 85° |
| 2026-04-23 19:55 | 49.01355 | 2.31285 | 3116 ft | 127 kts | 84° |
| 2026-04-23 19:55 | 49.01425 | 2.32614 | 2939 ft | 128 kts | 84° |
| 2026-04-23 19:56 | 49.01495 | 2.33960 | 2801 ft | 127 kts | 85° |
| 2026-04-23 19:56 | 49.01566 | 2.35306 | 2599 ft | 126 kts | 85° |
| 2026-04-23 19:56 | 49.01636 | 2.36625 | 2425 ft | 124 kts | 84° |
| 2026-04-23 19:56 | 49.01704 | 2.37909 | 2271 ft | 122 kts | 83° |
| 2026-04-23 19:57 | 49.01778 | 2.39216 | 2149 ft | 125 kts | 83° |
| 2026-04-23 19:57 | 49.01849 | 2.40545 | 1905 ft | 126 kts | 85° |
| 2026-04-23 19:57 | 49.01903 | 2.41875 | 1710 ft | 126 kts | 83° |
| 2026-04-23 19:57 | 49.02004 | 2.43188 | 1620 ft | 125 kts | 86° |
| 2026-04-23 19:58 | 49.02029 | 2.44532 | 1516 ft | 130 kts | 84° |
| 2026-04-23 19:58 | 49.02140 | 2.45892 | 1261 ft | 131 kts | 84° |
| 2026-04-23 19:58 | 49.02193 | 2.47264 | 1090 ft | 135 kts | 85° |
| 2026-04-23 19:58 | 49.02280 | 2.48689 | 997 ft | 137 kts | 84° |
| 2026-04-23 19:59 | 49.02341 | 2.50162 | 725 ft | 140 kts | 84° |